Terminal Aerodrome Forecast
Issued by NWS Cleveland, OH

Home | Current Version | Previous Version | Graphics & Text | Print | Product List | Glossary On
Versions: 1 2 3 4 5 6 7 8 9 10 11 12 13 14 15 16 17 18 19 20 21 22 23 24 25 26 27 28 29 30
000
FTUS41 KCLE 212200 AAA
TAFMFD
TAF AMD
KMFD 212224Z 2122/2218 35012KT P6SM SCT008 OVC012
      TEMPO 2201/2204 4SM -DZ BR OVC008
     FM220400 36008KT P6SM OVC008
     FM221500 35008KT P6SM OVC015=

USA.gov is the U.S. government's official web portal to all federal, state and local government web resources and services.